CheckWX is a tool to help pilots better visualize weather data.  It is not intended as a substitute for an official pre-flight weather briefing.

06:45:34 UTC

BIEG METAR
Egilsstaðir Airport
Egilsstaðir, Iceland
Current

46 mins ago

BIEG 210600Z 36008KT 9999 OVC004 05/04 Q1020
Observed
May-21 @ 06:00 UTC
Wind
  • 360° at 8 KTS
Visibility
10,000+ meters
Flight Rules
LIFR
Cloud Levels
  • Overcast at 400' AGL
Temperature
C / 41°F
Dewpoint
C / 39°F
Humidity
93%
Altimeter
30.12" Hg
Pressure
1019.92 hPa
Previous

2 hours ago

BIEG 210500Z 01008KT 9999 OVC004 05/04 Q1020
Observed
May-21 @ 05:00 UTC
Wind
  • 010° at 8 KTS
Visibility
10,000+ meters
Flight Rules
LIFR
Cloud Levels
  • Overcast at 400' AGL
Temperature
C / 41°F
Dewpoint
C / 39°F
Humidity
93%
Altimeter
30.12" Hg
Pressure
1019.92 hPa
Previous

3 hours ago

BIEG 210400Z 36007KT 9999 OVC004 05/04 Q1020 RERA
Observed
May-21 @ 04:00 UTC
Wind
  • 360° at 7 KTS
Visibility
10,000+ meters
Flight Rules
LIFR
Cloud Levels
  • Overcast at 400' AGL
Temperature
C / 41°F
Dewpoint
C / 39°F
Humidity
93%
Altimeter
30.12" Hg
Pressure
1019.92 hPa